KMGJ/MGJ METAR and TAF weather

Enter ICAO airport designator
Station Type Date Time Source
KMGJ METAR 2021/04/13 05:54 UTC NOAA

KMGJ 130554Z AUTO 00000KT 10SM OVC060 06/06 A2996 RMK AO2 SLP145 60007 T00610056 10083 20061 58000


Station Type Date Time Source
KMGJ Decoded METAR 2021/04/13 05:54 UTC NOAA

MONTGOMERY ORANGE CO AIRPORT, NY, United States (KMGJ) 41-31N 074-16W 108M
Apr 13, 2021 - 01:54 AM EDT / 2021.04.13 0554 UTC
Wind: Calm:0
Visibility: 10 mile(s):0
Sky conditions: overcast
Temperature: 43.0 F (6.1 C)
Dew Point: 42.1 F (5.6 C)
Relative Humidity: 96%
Pressure (altimeter): 29.96 in. Hg (1014 hPa)
Pressure tendency: 0.00 inches (0.0 hPa) lower than three hours ago
ob: KMGJ 130554Z AUTO 00000KT 10SM OVC060 06/06 A2996 RMK AO2 SLP145 60007 T00610056 10083 20061 58000
cycle: 6

Station Type Date Time Source
KMGJ TAF UTC NOAA

Error!

Example: see airport list